createdAt,value
2016-06-23T00:00:06.829Z,0
2016-06-23T00:01:06.248Z,0
2016-06-23T00:02:05.627Z,0
2016-06-23T00:03:06.210Z,0
2016-06-23T00:04:05.617Z,0
2016-06-23T00:05:06.826Z,0
2016-06-23T00:06:05.614Z,0
2016-06-23T00:07:05.603Z,0
2016-06-23T00:08:06.238Z,0
2016-06-23T00:09:06.829Z,0
2016-06-23T00:10:05.605Z,0
2016-06-23T00:11:05.610Z,0
2016-06-23T00:12:05.602Z,0
2016-06-23T00:13:05.000Z,0
2016-06-23T00:14:06.230Z,0
2016-06-23T00:15:06.205Z,0
2016-06-23T00:16:06.425Z,0
2016-06-23T00:17:05.599Z,0
2016-06-23T00:18:05.622Z,0
2016-06-23T00:19:05.603Z,0
2016-06-23T00:20:06.222Z,0
2016-06-23T00:21:06.858Z,0
2016-06-23T00:22:06.212Z,0
2016-06-23T00:23:05.784Z,0
2016-06-23T00:24:08.764Z,0
2016-06-23T00:25:07.364Z,0
2016-06-23T00:26:06.205Z,0
2016-06-23T00:27:06.673Z,0
2016-06-23T00:28:06.396Z,0
2016-06-23T00:29:05.618Z,0
2016-06-23T00:30:06.474Z,0
2016-06-23T00:31:05.779Z,0
2016-06-23T00:32:06.511Z,0
2016-06-23T00:33:08.858Z,0
2016-06-23T00:34:07.714Z,0
2016-06-23T00:35:07.366Z,0
2016-06-23T00:36:05.902Z,0
2016-06-23T00:37:05.589Z,0
2016-06-23T00:38:05.079Z,0
2016-06-23T00:39:06.815Z,0
2016-06-23T00:40:05.586Z,0
2016-06-23T00:41:05.591Z,0
2016-06-23T00:42:05.589Z,0
2016-06-23T00:43:04.975Z,0
2016-06-23T00:44:06.210Z,0
2016-06-23T00:45:05.003Z,0
2016-06-23T00:46:04.978Z,0
2016-06-23T00:47:04.979Z,0
2016-06-23T00:48:05.011Z,0
2016-06-23T00:49:06.195Z,0
2016-06-23T00:50:04.977Z,0
2016-06-23T00:51:06.210Z,0
2016-06-23T00:52:06.814Z,0
2016-06-23T00:53:06.848Z,0
2016-06-23T00:54:06.196Z,0
2016-06-23T00:55:06.198Z,0
2016-06-23T00:56:06.234Z,0
2016-06-23T00:57:05.594Z,0
2016-06-23T00:58:05.577Z,0
2016-06-23T00:59:05.589Z,0
2016-06-23T01:00:06.207Z,0
2016-06-23T01:01:06.197Z,0
2016-06-23T01:02:04.991Z,0
2016-06-23T01:03:05.588Z,0
2016-06-23T01:04:05.579Z,0
2016-06-23T01:05:06.184Z,0
2016-06-23T01:06:06.188Z,0
2016-06-23T01:07:06.189Z,0
2016-06-23T01:08:06.920Z,0
2016-06-23T01:09:06.254Z,0
2016-06-23T01:10:06.803Z,0
2016-06-23T01:11:06.807Z,0
2016-06-23T01:12:06.509Z,0
2016-06-23T01:13:05.297Z,0
2016-06-23T01:14:05.579Z,0
2016-06-23T01:15:06.183Z,0
2016-06-23T01:16:06.885Z,0
2016-06-23T01:17:06.175Z,0
2016-06-23T01:18:05.577Z,0
2016-06-23T01:19:05.563Z,0
2016-06-23T01:20:05.574Z,0
2016-06-23T01:21:04.966Z,0
2016-06-23T01:22:05.560Z,0
2016-06-23T01:23:06.189Z,0
2016-06-23T01:24:06.183Z,0
2016-06-23T01:25:05.566Z,0
2016-06-23T01:26:06.172Z,0
2016-06-23T01:27:05.555Z,0
2016-06-23T01:28:05.553Z,0
2016-06-23T01:29:05.564Z,0
2016-06-23T01:30:05.579Z,0
2016-06-23T01:31:06.159Z,0
2016-06-23T01:32:06.428Z,0
2016-06-23T01:33:05.563Z,0
2016-06-23T01:34:06.174Z,0
2016-06-23T01:35:05.559Z,0
2016-06-23T01:36:05.570Z,0
2016-06-23T01:37:05.557Z,0
2016-06-23T01:38:05.555Z,0
2016-06-23T01:39:06.775Z,0
2016-06-23T01:40:05.558Z,0
2016-06-23T01:41:07.818Z,0
2016-06-23T01:42:08.949Z,0
2016-06-23T01:43:20.433Z,0
2016-06-23T01:44:07.445Z,0
2016-06-23T01:45:08.097Z,0
2016-06-23T01:46:07.319Z,0
2016-06-23T01:47:06.122Z,0
2016-06-23T01:48:06.629Z,0
2016-06-23T01:49:06.150Z,4
2016-06-23T01:50:04.931Z,4
2016-06-23T01:51:09.414Z,4
2016-06-23T01:52:08.432Z,4
2016-06-23T01:53:08.446Z,0
2016-06-23T01:54:08.329Z,4
2016-06-23T01:55:04.984Z,4
2016-06-23T01:56:06.643Z,4
2016-06-23T01:57:05.870Z,4
2016-06-23T01:58:06.749Z,4
2016-06-23T01:59:04.938Z,8
2016-06-23T02:00:04.926Z,4
2016-06-23T02:01:06.145Z,8
2016-06-23T02:02:05.539Z,8
2016-06-23T02:03:06.158Z,8
2016-06-23T02:04:05.538Z,12
2016-06-23T02:05:04.935Z,8
2016-06-23T02:06:05.548Z,12
2016-06-23T02:07:06.138Z,12
2016-06-23T02:08:06.148Z,12
2016-06-23T02:09:05.542Z,16
2016-06-23T02:10:05.533Z,16
2016-06-23T02:11:04.927Z,20
2016-06-23T02:12:05.534Z,24
2016-06-23T02:13:05.534Z,28
2016-06-23T02:14:05.542Z,28
2016-06-23T02:15:06.130Z,32
2016-06-23T02:16:06.130Z,36
2016-06-23T02:17:06.119Z,40
2016-06-23T02:18:05.529Z,48
2016-06-23T02:19:06.131Z,48
2016-06-23T02:20:06.747Z,56
2016-06-23T02:21:06.142Z,60
2016-06-23T02:22:04.905Z,68
2016-06-23T02:23:05.522Z,80
2016-06-23T02:24:04.909Z,84
2016-06-23T02:25:05.532Z,96
2016-06-23T02:26:06.136Z,100
2016-06-23T02:27:06.138Z,112
2016-06-23T02:28:05.502Z,124
2016-06-23T02:29:06.132Z,136
2016-06-23T02:30:05.553Z,148
2016-06-23T02:31:05.506Z,164
2016-06-23T02:32:05.508Z,176
2016-06-23T02:33:04.906Z,192
2016-06-23T02:34:05.521Z,208
2016-06-23T02:35:05.535Z,228
2016-06-23T02:36:05.508Z,244
2016-06-23T02:37:05.507Z,264
2016-06-23T02:38:05.500Z,284
2016-06-23T02:39:04.911Z,308
2016-06-23T02:40:05.483Z,328
2016-06-23T02:41:06.094Z,352
2016-06-23T02:42:05.527Z,376
2016-06-23T02:43:05.497Z,404
2016-06-23T02:44:05.506Z,428
2016-06-23T02:45:05.534Z,456
2016-06-23T02:46:06.084Z,488
2016-06-23T02:47:06.723Z,516
2016-06-23T02:48:06.705Z,548
2016-06-23T02:49:06.085Z,584
2016-06-23T02:50:04.893Z,616
2016-06-23T02:51:06.107Z,652
2016-06-23T02:52:06.093Z,692
2016-06-23T02:53:05.485Z,728
2016-06-23T02:54:06.105Z,768
2016-06-23T02:55:06.703Z,812
2016-06-23T02:56:05.480Z,852
2016-06-23T02:57:06.124Z,900
2016-06-23T02:58:05.488Z,940
2016-06-23T02:59:06.707Z,988
2016-06-23T03:01:07.411Z,1088
2016-06-23T03:02:07.576Z,1140
2016-06-23T03:03:07.073Z,1188
2016-06-23T03:04:05.477Z,1240
2016-06-23T03:05:06.778Z,1296
2016-06-23T03:06:05.530Z,1344
2016-06-23T03:07:05.518Z,1400
2016-06-23T03:08:06.699Z,1456
2016-06-23T03:09:06.424Z,1512
2016-06-23T03:10:07.161Z,1572
2016-06-23T03:11:06.275Z,1632
2016-06-23T03:12:07.758Z,1692
2016-06-23T03:13:06.737Z,1752
2016-06-23T03:14:06.082Z,1816
2016-06-23T03:15:06.066Z,1892
2016-06-23T03:16:06.780Z,1980
2016-06-23T03:17:06.085Z,2076
2016-06-23T03:18:06.693Z,2176
2016-06-23T03:19:06.685Z,2320
2016-06-23T03:20:05.088Z,2468
2016-06-23T03:21:05.464Z,2632
2016-06-23T03:22:04.846Z,2828
2016-06-23T03:23:05.462Z,3000
2016-06-23T03:24:06.064Z,3112
2016-06-23T03:25:05.468Z,3208
2016-06-23T03:26:05.465Z,3308
2016-06-23T03:27:06.069Z,3408
2016-06-23T03:28:06.069Z,3488
2016-06-23T03:29:04.853Z,3592
2016-06-23T03:30:05.450Z,3680
2016-06-23T03:31:04.856Z,3780
2016-06-23T03:32:05.470Z,3892
2016-06-23T03:33:06.080Z,3996
2016-06-23T03:34:06.701Z,4092
2016-06-23T03:35:06.069Z,4200
2016-06-23T03:36:05.454Z,4312
2016-06-23T03:37:06.093Z,4420
2016-06-23T03:38:06.692Z,4540
2016-06-23T03:39:05.455Z,4768
2016-06-23T03:40:04.861Z,5300
2016-06-23T03:41:06.691Z,5808
2016-06-23T03:42:04.856Z,6100
2016-06-23T03:43:05.463Z,6160
2016-06-23T03:44:05.468Z,6316
2016-06-23T03:45:05.461Z,6348
2016-06-23T03:46:06.106Z,6264
2016-06-23T03:47:05.481Z,6376
2016-06-23T03:48:06.081Z,6436
2016-06-23T03:49:06.748Z,6676
2016-06-23T03:50:05.493Z,7164
2016-06-23T03:51:05.491Z,7392
2016-06-23T03:52:05.523Z,7312
2016-06-23T03:53:06.135Z,7424
2016-06-23T03:54:06.101Z,7672
2016-06-23T03:55:06.138Z,7648
2016-06-23T03:56:05.536Z,7768
2016-06-23T03:57:06.122Z,8320
2016-06-23T03:58:06.745Z,8912
2016-06-23T03:59:06.776Z,8952
2016-06-23T04:00:06.138Z,8668
2016-06-23T04:01:05.538Z,8444
2016-06-23T04:02:06.753Z,8652
2016-06-23T04:03:05.555Z,9356
2016-06-23T04:04:04.957Z,9948
2016-06-23T04:05:04.957Z,10068
2016-06-23T04:06:05.563Z,9956
2016-06-23T04:07:06.183Z,10068
2016-06-23T04:08:04.990Z,10396
2016-06-23T04:09:05.588Z,10732
2016-06-23T04:10:06.209Z,10908
2016-06-23T04:11:05.606Z,10932
2016-06-23T04:12:06.841Z,10976
2016-06-23T04:13:06.850Z,10956
2016-06-23T04:14:05.638Z,10904
2016-06-23T04:15:06.255Z,11016
2016-06-23T04:16:06.265Z,11596
2016-06-23T04:17:06.890Z,12048
2016-06-23T04:18:07.168Z,12032
2016-06-23T04:19:08.630Z,12056
2016-06-23T04:20:07.319Z,12264
2016-06-23T04:21:06.921Z,12908
2016-06-23T04:22:06.329Z,13468
2016-06-23T04:23:21.209Z,13696
2016-06-23T04:24:06.340Z,13504
2016-06-23T04:25:06.959Z,13856
2016-06-23T04:26:05.750Z,14208
2016-06-23T04:27:06.265Z,12560
2016-06-23T04:28:08.195Z,13104
2016-06-23T04:29:07.251Z,12988
2016-06-23T04:30:10.057Z,13100
2016-06-23T04:31:06.037Z,13564
2016-06-23T04:32:05.805Z,14432
2016-06-23T04:33:06.796Z,15072
2016-06-23T04:34:05.399Z,15136
2016-06-23T04:35:05.233Z,14816
2016-06-23T04:36:06.469Z,14880
2016-06-23T04:37:05.262Z,15904
2016-06-23T04:38:05.884Z,17312
2016-06-23T04:39:06.504Z,18528
2016-06-23T04:40:05.296Z,18720
2016-06-23T04:41:05.922Z,18720
2016-06-23T04:42:05.936Z,18240
2016-06-23T04:43:05.935Z,18400
2016-06-23T04:44:06.550Z,19168
2016-06-23T04:45:07.192Z,19392
2016-06-23T04:46:06.580Z,20352
2016-06-23T04:47:05.384Z,20800
2016-06-23T04:48:06.613Z,21184
2016-06-23T04:49:06.623Z,22016
2016-06-23T04:50:06.021Z,22688
2016-06-23T04:51:05.435Z,22592
2016-06-23T04:52:06.033Z,21984
2016-06-23T04:53:06.055Z,21984
2016-06-23T04:54:05.470Z,21184
2016-06-23T04:55:06.095Z,21120
2016-06-23T04:56:06.112Z,23040
2016-06-23T04:57:06.750Z,22464
2016-06-23T04:58:06.747Z,21280
2016-06-23T04:59:06.151Z,21856
2016-06-23T05:00:06.157Z,22016
2016-06-23T05:01:06.764Z,21696
2016-06-23T05:02:06.793Z,21472
2016-06-23T05:03:06.814Z,20768
2016-06-23T05:04:06.813Z,20288
2016-06-23T05:05:06.225Z,21408
2016-06-23T05:06:06.249Z,23136
2016-06-23T05:07:06.256Z,24448
2016-06-23T05:08:06.270Z,24480
2016-06-23T05:09:06.279Z,24224
2016-06-23T05:10:06.297Z,24992
2016-06-23T05:11:06.297Z,25184
2016-06-23T05:12:06.323Z,24576
2016-06-23T05:13:06.964Z,24480
2016-06-23T05:14:06.981Z,26144
2016-06-23T05:15:06.998Z,27264
2016-06-23T05:16:05.893Z,26464
2016-06-23T05:17:07.022Z,25888
2016-06-23T05:18:06.428Z,27360
2016-06-23T05:19:07.048Z,28288
2016-06-23T05:20:07.073Z,27744
2016-06-23T05:21:06.470Z,27200
2016-06-23T05:22:06.507Z,26336
2016-06-23T05:23:06.506Z,26848
2016-06-23T05:24:07.148Z,27232
2016-06-23T05:25:06.774Z,25984
2016-06-23T05:26:07.430Z,25920
2016-06-23T05:27:07.178Z,26912
2016-06-23T05:28:06.591Z,27584
2016-06-23T05:29:06.609Z,29120
2016-06-23T05:30:07.824Z,28576
2016-06-23T05:31:07.248Z,27520
2016-06-23T05:32:07.283Z,27936
2016-06-23T05:33:06.686Z,28800
2016-06-23T05:34:07.941Z,29536
2016-06-23T05:35:06.719Z,29440
2016-06-23T05:36:07.325Z,27360
2016-06-23T05:37:08.333Z,26304
2016-06-23T05:38:10.150Z,28288
2016-06-23T05:39:08.582Z,31040
2016-06-23T05:40:08.585Z,32096
2016-06-23T05:41:08.702Z,31392
2016-06-23T05:42:07.642Z,30624
2016-06-23T05:43:08.084Z,30944
2016-06-23T05:44:08.087Z,32224
2016-06-23T05:45:07.486Z,32512
2016-06-23T05:46:22.933Z,31904
2016-06-23T05:47:09.819Z,32096
2016-06-23T05:48:09.118Z,33408
2016-06-23T05:49:07.058Z,35328
2016-06-23T05:50:08.087Z,35168
2016-06-23T05:51:08.370Z,33792
2016-06-23T05:52:06.479Z,33216
2016-06-23T05:53:07.897Z,33984
2016-06-23T05:54:07.139Z,36032
2016-06-23T05:55:07.064Z,37216
2016-06-23T05:56:07.695Z,36512
2016-06-23T05:57:07.714Z,35584
2016-06-23T05:58:08.337Z,35104
2016-06-23T05:59:08.377Z,36384
2016-06-23T06:00:07.785Z,36224
2016-06-23T06:01:06.561Z,37056
2016-06-23T06:02:06.586Z,39360
2016-06-23T06:03:07.817Z,39040
2016-06-23T06:04:07.219Z,37056
2016-06-23T06:05:07.256Z,35936
2016-06-23T06:06:07.300Z,36224
2016-06-23T06:07:07.277Z,36544
2016-06-23T06:08:07.313Z,38528
2016-06-23T06:09:07.330Z,40832
2016-06-23T06:10:07.334Z,41472
2016-06-23T06:11:07.350Z,40672
2016-06-23T06:12:07.993Z,41184
2016-06-23T06:13:08.610Z,43168
2016-06-23T06:14:07.421Z,43104
2016-06-23T06:15:07.466Z,42400
2016-06-23T06:16:07.550Z,42912
2016-06-23T06:17:07.483Z,42752
2016-06-23T06:18:06.892Z,41408
2016-06-23T06:19:08.139Z,41152
2016-06-23T06:20:07.530Z,44544
2016-06-23T06:21:07.561Z,46784
2016-06-23T06:22:07.574Z,46272
2016-06-23T06:23:08.822Z,43776
2016-06-23T06:24:08.824Z,45280
2016-06-23T06:25:08.249Z,50656
2016-06-23T06:26:07.671Z,55520
2016-06-23T06:27:07.070Z,55136
2016-06-23T06:28:07.682Z,49856
2016-06-23T06:29:08.318Z,45120
2016-06-23T06:30:08.334Z,45312
2016-06-23T06:31:07.139Z,47392
2016-06-23T06:32:07.766Z,48736
2016-06-23T06:33:08.397Z,48448
2016-06-23T06:34:08.414Z,51424
2016-06-23T06:35:07.822Z,54240
2016-06-23T06:36:08.437Z,54528
2016-06-23T06:37:07.266Z,51712
2016-06-23T06:38:08.520Z,49024
2016-06-23T06:39:08.513Z,51328
2016-06-23T06:40:08.545Z,56128
2016-06-23T06:41:09.149Z,57568
2016-06-23T06:42:09.184Z,57280
2016-06-23T06:43:08.609Z,55136
2016-06-23T06:44:08.620Z,52384
2016-06-23T06:45:08.645Z,51616
2016-06-23T06:46:08.049Z,53056
2016-06-23T06:47:09.270Z,56928
2016-06-23T06:48:07.478Z,59328
2016-06-23T06:49:09.373Z,60608
2016-06-23T06:50:08.122Z,59648
2016-06-23T06:51:08.141Z,57600
2016-06-23T06:52:07.579Z,56352
2016-06-23T06:53:08.183Z,55200
2016-06-23T06:54:08.199Z,53120
2016-06-23T06:56:11.196Z,43968
2016-06-23T06:57:09.782Z,47360
2016-06-23T06:58:09.392Z,53696
2016-06-23T06:59:10.186Z,58560
2016-06-23T07:00:08.877Z,60832
2016-06-23T07:01:09.727Z,60064
2016-06-23T07:02:08.800Z,56896
2016-06-23T07:03:07.780Z,53408
2016-06-23T07:04:09.433Z,53216
2016-06-23T07:05:09.172Z,56000
2016-06-23T07:06:11.218Z,60768
2016-06-23T07:07:08.870Z,61792
2016-06-23T07:08:10.105Z,59296
2016-06-23T07:09:09.760Z,57440
2016-06-23T07:10:09.863Z,55488
2016-06-23T07:11:08.973Z,53760
2016-06-23T07:12:09.184Z,54560
2016-06-23T07:13:07.997Z,58304
2016-06-23T07:14:08.626Z,61568
2016-06-23T07:15:09.875Z,62336
2016-06-23T07:16:09.998Z,63200
2016-06-23T07:17:08.689Z,62816
2016-06-23T07:18:08.719Z,61664
2016-06-23T07:19:08.734Z,59584
2016-06-23T07:20:08.767Z,57952
2016-06-23T07:21:09.401Z,58784
2016-06-23T07:22:09.394Z,61664
2016-06-23T07:23:08.807Z,64704
2016-06-23T07:24:10.029Z,67040
2016-06-23T07:25:10.068Z,66304
2016-06-23T07:26:08.851Z,64512
2016-06-23T07:27:08.282Z,62432
2016-06-23T07:28:08.308Z,63200
2016-06-23T07:29:09.524Z,64672
2016-06-23T07:30:08.964Z,64096
2016-06-23T07:31:10.175Z,64544
2016-06-23T07:32:09.589Z,67616
2016-06-23T07:33:08.993Z,69920
2016-06-23T07:34:09.636Z,71552
2016-06-23T07:35:09.663Z,71520
2016-06-23T07:36:10.282Z,69760
2016-06-23T07:37:09.094Z,69600
2016-06-23T07:38:10.340Z,69632
2016-06-23T07:39:09.726Z,69792
2016-06-23T07:40:09.167Z,70464
2016-06-23T07:41:09.787Z,70208
2016-06-23T07:42:09.191Z,69472
2016-06-23T07:43:09.235Z,69216
2016-06-23T07:44:09.871Z,68064
2016-06-23T07:45:10.513Z,69856
2016-06-23T07:46:09.915Z,72192
2016-06-23T07:47:09.305Z,72704
2016-06-23T07:48:09.310Z,73888
2016-06-23T07:49:10.587Z,75136
2016-06-23T07:50:09.976Z,75552
2016-06-23T07:51:10.576Z,72480
2016-06-23T07:52:08.855Z,70944
2016-06-23T07:53:10.047Z,70496
2016-06-23T07:54:08.815Z,71616
2016-06-23T07:55:10.068Z,71392
2016-06-23T07:56:09.482Z,73248
2016-06-23T07:57:10.211Z,75136
2016-06-23T07:58:09.523Z,74176
2016-06-23T07:59:09.532Z,72896
2016-06-23T08:00:10.163Z,73888
2016-06-23T08:01:10.179Z,76288
2016-06-23T08:02:09.579Z,74624
2016-06-23T08:03:09.617Z,67552
2016-06-23T08:04:09.620Z,62432
2016-06-23T08:05:09.640Z,63680
2016-06-23T08:06:09.677Z,69696
2016-06-23T08:07:10.078Z,72608
2016-06-23T08:08:09.710Z,71232
2016-06-23T08:09:09.715Z,72256
2016-06-23T08:10:09.752Z,76416
2016-06-23T08:11:10.376Z,81440
2016-06-23T08:12:09.788Z,83520
2016-06-23T08:14:41.923Z,76192
2016-06-23T08:15:26.587Z,73152
2016-06-23T08:16:11.899Z,72544
2016-06-23T08:17:12.070Z,75328
2016-06-23T08:18:09.913Z,78336
2016-06-23T08:19:11.086Z,80928
2016-06-23T08:20:10.340Z,80000
2016-06-23T08:21:10.641Z,78976
2016-06-23T08:22:09.398Z,80544
2016-06-23T08:23:11.317Z,81696
2016-06-23T08:24:11.165Z,76544
2016-06-23T08:25:10.430Z,74240
2016-06-23T08:26:11.542Z,76288
2016-06-23T08:27:25.058Z,77824
2016-06-23T08:28:11.231Z,75744
2016-06-23T08:29:10.357Z,71520
2016-06-23T08:30:10.814Z,71072
2016-06-23T08:31:10.154Z,74400
2016-06-23T08:32:10.800Z,80096
2016-06-23T08:33:11.415Z,86528
2016-06-23T08:34:10.192Z,93088
2016-06-23T08:35:10.225Z,95584
2016-06-23T08:36:10.856Z,91776
2016-06-23T08:37:09.701Z,84992
2016-06-23T08:38:10.907Z,81888
2016-06-23T08:39:10.307Z,82400
2016-06-23T08:40:10.340Z,83104
2016-06-23T08:41:10.343Z,84000
2016-06-23T08:42:10.980Z,84800
2016-06-23T08:43:09.776Z,84800
2016-06-23T08:44:11.011Z,83360
2016-06-23T08:45:10.275Z,80352
2016-06-23T08:46:11.061Z,81792
2016-06-23T08:47:11.687Z,82592
2016-06-23T08:48:10.476Z,79456
2016-06-23T08:49:11.129Z,78432
2016-06-23T08:50:11.751Z,82336
2016-06-23T08:51:11.147Z,88128
2016-06-23T08:52:11.164Z,92416
2016-06-23T08:53:09.954Z,92064
2016-06-23T08:54:10.609Z,88160
2016-06-23T08:55:10.623Z,86080
2016-06-23T08:56:11.267Z,88448
2016-06-23T08:57:11.273Z,89344
2016-06-23T08:58:10.706Z,88864
2016-06-23T08:59:11.316Z,89376
2016-06-23T09:00:10.772Z,89440
2016-06-23T09:01:10.742Z,61600
2016-06-23T09:02:11.955Z,19392
2016-06-23T09:03:12.022Z,5916
2016-06-23T09:04:11.408Z,5788
2016-06-23T09:05:10.806Z,5796
2016-06-23T09:06:12.041Z,5812
2016-06-23T09:07:12.071Z,5804
2016-06-23T09:08:10.266Z,5788
2016-06-23T09:09:11.487Z,5764
2016-06-23T09:10:12.131Z,5748
2016-06-23T09:11:12.125Z,5736
2016-06-23T09:12:11.537Z,5756
2016-06-23T09:13:11.552Z,5800
2016-06-23T09:14:11.579Z,5840
2016-06-23T09:15:11.572Z,5844
2016-06-23T09:16:11.672Z,5848
2016-06-23T09:17:10.369Z,5844
2016-06-23T09:18:10.989Z,5816
2016-06-23T09:19:11.020Z,5788
2016-06-23T09:20:11.024Z,5740
2016-06-23T09:21:11.034Z,5700
2016-06-23T09:22:11.668Z,5672
2016-06-23T09:23:11.091Z,5648
2016-06-23T09:24:11.706Z,5592
2016-06-23T09:25:12.317Z,5528
2016-06-23T09:26:11.711Z,5448
2016-06-23T09:27:11.727Z,5400
2016-06-23T09:28:10.514Z,5392
2016-06-23T09:29:11.763Z,5432
2016-06-23T09:30:11.162Z,5492
2016-06-23T09:31:11.815Z,5556
2016-06-23T09:32:12.836Z,5596
2016-06-23T09:33:26.866Z,5644
2016-06-23T09:34:14.381Z,5648
2016-06-23T09:35:13.586Z,5656
2016-06-23T09:36:12.591Z,5656
2016-06-23T09:37:11.978Z,5660
2016-06-23T09:38:12.571Z,5692
2016-06-23T09:39:12.787Z,5732
2016-06-23T09:40:11.890Z,5748
2016-06-23T09:41:26.997Z,5832
2016-06-23T09:42:14.909Z,5888
2016-06-23T09:44:11.875Z,5960
2016-06-23T09:45:11.143Z,5936
2016-06-23T09:46:12.198Z,5860
2016-06-23T09:47:13.417Z,5772
2016-06-23T09:48:11.377Z,5696
2016-06-23T09:49:12.878Z,5620
2016-06-23T09:50:11.948Z,5544
2016-06-23T09:51:11.353Z,5464
2016-06-23T09:52:11.983Z,5440
2016-06-23T09:53:11.375Z,5492
2016-06-23T09:54:12.613Z,5512
2016-06-23T09:55:12.619Z,5528
2016-06-23T09:56:12.622Z,5516
2016-06-23T09:57:10.815Z,5520
2016-06-23T09:58:12.035Z,5560
2016-06-23T09:59:11.431Z,5600
2016-06-23T10:00:10.834Z,5684
2016-06-23T10:01:12.659Z,5756
2016-06-23T10:02:11.478Z,5800
2016-06-23T10:03:12.103Z,5804
2016-06-23T10:04:12.686Z,5752
2016-06-23T10:05:12.099Z,5688
2016-06-23T10:06:11.508Z,5640
2016-06-23T10:07:10.894Z,5600
2016-06-23T10:08:11.957Z,5540
2016-06-23T10:09:12.747Z,5472
2016-06-23T10:10:10.936Z,5384
2016-06-23T10:11:11.554Z,5328
2016-06-23T10:12:12.171Z,5308
2016-06-23T10:13:12.181Z,5328
2016-06-23T10:14:11.554Z,5356
2016-06-23T10:15:12.211Z,5368
2016-06-23T10:16:12.909Z,5372
2016-06-23T10:17:12.205Z,5404
2016-06-23T10:18:11.031Z,5444
2016-06-23T10:19:10.988Z,5484
2016-06-23T10:20:12.850Z,5516
2016-06-23T10:21:12.239Z,5524
2016-06-23T10:22:12.268Z,5504
2016-06-23T10:23:12.267Z,5440
2016-06-23T10:24:12.873Z,5312
2016-06-23T10:25:12.921Z,5172
2016-06-23T10:26:12.330Z,5044
2016-06-23T10:27:12.306Z,4948
2016-06-23T10:28:12.905Z,4904
2016-06-23T10:29:11.734Z,4896
2016-06-23T10:30:11.102Z,4900
2016-06-23T10:31:12.934Z,4920
2016-06-23T10:32:12.931Z,4940
2016-06-23T10:33:12.345Z,4940
2016-06-23T10:34:12.390Z,4936
2016-06-23T10:35:12.969Z,4920
2016-06-23T10:36:11.778Z,4908
2016-06-23T10:37:11.770Z,4888
2016-06-23T10:38:12.472Z,4856
2016-06-23T10:39:12.428Z,4832
2016-06-23T10:40:13.020Z,4812
2016-06-23T10:41:12.433Z,4792
2016-06-23T10:42:13.039Z,4776
2016-06-23T10:43:12.431Z,4772
2016-06-23T10:44:13.065Z,4764
2016-06-23T10:45:12.465Z,4760
2016-06-23T10:46:11.847Z,4768
2016-06-23T10:47:12.489Z,4756
2016-06-23T10:48:13.080Z,4724
2016-06-23T10:49:11.909Z,4716
2016-06-23T10:50:11.966Z,4708
2016-06-23T10:51:18.726Z,4684
2016-06-23T10:52:56.018Z,4676
2016-06-23T10:53:15.171Z,4672
2016-06-23T10:54:11.932Z,4664
2016-06-23T10:55:13.799Z,4656
2016-06-23T10:56:12.250Z,4652
2016-06-23T10:57:12.357Z,4648
2016-06-23T10:58:13.573Z,4640
2016-06-23T10:59:14.413Z,4640
2016-06-23T11:00:15.115Z,4628
2016-06-23T11:01:14.468Z,4632
2016-06-23T11:02:13.388Z,4636
2016-06-23T11:03:13.652Z,4616
2016-06-23T11:04:12.649Z,4612
2016-06-23T11:05:13.279Z,4596
2016-06-23T11:06:12.037Z,4596
2016-06-23T11:07:12.653Z,4592
2016-06-23T11:08:13.262Z,4564
2016-06-23T11:09:12.051Z,4532
2016-06-23T11:10:12.676Z,4480
2016-06-23T11:11:13.282Z,4440
2016-06-23T11:12:11.478Z,4448
2016-06-23T11:13:12.702Z,4452
2016-06-23T11:14:12.707Z,4440
2016-06-23T11:15:13.319Z,4448
2016-06-23T11:16:12.715Z,4456
2016-06-23T11:17:13.381Z,4472
2016-06-23T11:18:11.527Z,4500
2016-06-23T11:19:12.158Z,4528
2016-06-23T11:20:12.154Z,4436
2016-06-23T11:21:12.797Z,4472
2016-06-23T11:22:13.389Z,4532
2016-06-23T11:23:12.799Z,4540
2016-06-23T11:24:12.816Z,4536
2016-06-23T11:25:12.814Z,4532
2016-06-23T11:26:11.591Z,4532
2016-06-23T11:27:12.817Z,4556
2016-06-23T11:28:13.463Z,4588
2016-06-23T11:29:12.870Z,4600
2016-06-23T11:30:12.849Z,4616
2016-06-23T11:31:13.472Z,4604
2016-06-23T11:32:12.860Z,4596
2016-06-23T11:33:12.875Z,4568
2016-06-23T11:34:12.883Z,4524
2016-06-23T11:35:12.929Z,4500
2016-06-23T11:36:13.519Z,4500
2016-06-23T11:37:13.533Z,4532
2016-06-23T11:38:12.931Z,4592
2016-06-23T11:39:11.726Z,4628
2016-06-23T11:40:12.331Z,4644
2016-06-23T11:41:12.946Z,4668
2016-06-23T11:42:12.959Z,4708
2016-06-23T11:43:12.979Z,4740
2016-06-23T11:44:13.593Z,4748
2016-06-23T11:45:13.069Z,4752
2016-06-23T11:46:12.379Z,4772
2016-06-23T11:47:12.430Z,4780
2016-06-23T11:48:12.387Z,4748
2016-06-23T11:49:13.630Z,4708
2016-06-23T11:50:12.426Z,4696
2016-06-23T11:51:12.422Z,4688
2016-06-23T11:52:13.047Z,4676
2016-06-23T11:53:12.460Z,4664
2016-06-23T11:54:13.076Z,4672
2016-06-23T11:55:12.479Z,4692
2016-06-23T11:56:13.694Z,4716
2016-06-23T11:57:13.111Z,4732
2016-06-23T11:58:13.703Z,4732
2016-06-23T11:59:13.718Z,4708
2016-06-23T12:00:13.139Z,4688
2016-06-23T12:01:13.133Z,4652
2016-06-23T12:02:12.531Z,4620
2016-06-23T12:03:12.530Z,4596
2016-06-23T12:04:13.767Z,4560
2016-06-23T12:05:12.554Z,4516
2016-06-23T12:06:13.255Z,4496
2016-06-23T12:07:11.972Z,4480
2016-06-23T12:08:13.190Z,4468
2016-06-23T12:09:28.329Z,4444
2016-06-23T12:10:13.715Z,4432
2016-06-23T12:11:13.548Z,4412
2016-06-23T12:12:27.492Z,4376
2016-06-23T12:13:13.448Z,4356
2016-06-23T12:14:14.123Z,4344
2016-06-23T12:15:13.234Z,4348
2016-06-23T12:16:13.370Z,4340
2016-06-23T12:17:13.260Z,4332
2016-06-23T12:18:13.269Z,4300
2016-06-23T12:19:15.233Z,4272
2016-06-23T12:20:12.667Z,4268
2016-06-23T12:21:15.248Z,4252
2016-06-23T12:22:13.574Z,4248
2016-06-23T12:23:14.746Z,4256
2016-06-23T12:24:13.544Z,4260
2016-06-23T12:25:12.122Z,4264
2016-06-23T12:26:12.245Z,4264
2016-06-23T12:27:13.967Z,4248
2016-06-23T12:28:12.751Z,4224
2016-06-23T12:29:12.788Z,4220
2016-06-23T12:30:13.995Z,4212
2016-06-23T12:31:13.396Z,4216
2016-06-23T12:32:14.015Z,4212
2016-06-23T12:33:12.794Z,4212
2016-06-23T12:34:12.818Z,4196
2016-06-23T12:35:12.212Z,4176
2016-06-23T12:36:12.233Z,4172
2016-06-23T12:37:13.462Z,4168
2016-06-23T12:38:13.496Z,4172
2016-06-23T12:39:14.082Z,4164
2016-06-23T12:40:12.873Z,4160
2016-06-23T12:41:13.492Z,4120
2016-06-23T12:42:14.108Z,4092
2016-06-23T12:43:13.510Z,4084
2016-06-23T12:44:12.908Z,4088
2016-06-23T12:45:13.517Z,4080
2016-06-23T12:46:13.558Z,4064
2016-06-23T12:47:13.550Z,4040
2016-06-23T12:48:12.443Z,4028
2016-06-23T12:49:12.948Z,4008
2016-06-23T12:50:13.594Z,3992
2016-06-23T12:51:13.574Z,3972
2016-06-23T12:52:12.375Z,3952
2016-06-23T12:53:14.198Z,3944
2016-06-23T12:54:12.380Z,3936
2016-06-23T12:55:13.609Z,3936
2016-06-23T12:56:13.615Z,3940
2016-06-23T12:57:13.030Z,3944
2016-06-23T12:58:13.642Z,3944
2016-06-23T12:59:13.037Z,3936
2016-06-23T13:00:13.059Z,3924
2016-06-23T13:01:13.678Z,3920
2016-06-23T13:02:13.061Z,3900
2016-06-23T13:03:13.698Z,3884
2016-06-23T13:04:13.688Z,3876
2016-06-23T13:05:13.103Z,3876
2016-06-23T13:06:13.118Z,3868
2016-06-23T13:07:13.119Z,3872
2016-06-23T13:08:13.132Z,3860
2016-06-23T13:09:13.723Z,3848
2016-06-23T13:10:13.746Z,3836
2016-06-23T13:11:14.365Z,3832
2016-06-23T13:12:13.770Z,3828
2016-06-23T13:13:13.773Z,3832
2016-06-23T13:14:12.575Z,3832
2016-06-23T13:15:13.823Z,3840
2016-06-23T13:16:13.195Z,3840
2016-06-23T13:17:13.196Z,3832
2016-06-23T13:18:13.832Z,3824
2016-06-23T13:19:13.830Z,3820
2016-06-23T13:20:13.883Z,3820
2016-06-23T13:21:14.466Z,3820
2016-06-23T13:22:14.463Z,3812
2016-06-23T13:23:13.262Z,3804
2016-06-23T13:24:13.258Z,3804
2016-06-23T13:25:13.886Z,3796
2016-06-23T13:26:13.282Z,3796
2016-06-23T13:28:42.601Z,3788